Time;durP1;ratioP1;P1;durP2;ratioP2;P2;SDS_P1;SDS_P2;PMS_P1;PMS_P2;Temp;Humidity;BMP_temperature;BMP_pressure;BME280_temperature;BME280_humidity;BME280_pressure;Samples;Min_cycle;Max_cycle;Signal;HPM_P1;HPM_P2
2021/04/04 00:00:38;;;;;;;11.45;5.85;;;;;;;4.34;85.90;100878.98;2685224;88;21472;-61
2021/04/04 00:04:44;;;;;;;10.15;5.90;;;;;;;4.24;85.93;100882.95;2619136;90;21765;-62
2021/04/04 00:08:49;;;;;;;7.95;6.20;;;;;;;4.18;85.72;100883.24;2645581;87;21211;-62
2021/04/04 00:12:56;;;;;;;11.53;7.05;;;;;;;4.16;86.32;100890.36;2662354;89;21151;-63
2021/04/04 00:17:01;;;;;;;10.85;8.05;;;;;;;4.20;85.64;100886.66;2662569;89;21214;-62
2021/04/04 00:21:25;;;;;;;9.38;6.55;;;;;;;4.16;85.02;100881.98;2662158;88;21211;-61
2021/04/04 00:25:28;;;;;;;12.03;8.98;;;;;;;4.10;84.50;100887.53;2772849;85;21125;-62
2021/04/04 00:29:33;;;;;;;9.18;6.35;;;;;;;3.90;84.96;100885.33;2841175;83;21169;-64
2021/04/04 00:33:40;;;;;;;12.98;7.35;;;;;;;3.82;85.24;100889.61;2867356;83;21180;-62
2021/04/04 00:37:49;;;;;;;8.43;6.70;;;;;;;3.72;85.25;100885.66;2868724;83;21663;-62
2021/04/04 00:41:52;;;;;;;13.18;6.95;;;;;;;3.62;85.46;100881.26;2868946;83;21157;-61
2021/04/04 00:45:55;;;;;;;10.48;6.95;;;;;;;3.63;86.21;100882.97;2869129;83;21189;-63
2021/04/04 00:49:59;;;;;;;7.72;5.90;;;;;;;3.74;85.28;100887.80;2869120;83;21160;-61
2021/04/04 00:54:04;;;;;;;11.10;6.97;;;;;;;3.72;85.39;100881.71;2856608;83;21173;-60
2021/04/04 00:58:08;;;;;;;16.32;8.95;;;;;;;3.71;85.15;100881.32;2854467;83;21654;-60
2021/04/04 01:02:14;;;;;;;11.35;7.37;;;;;;;3.68;84.89;100886.28;2854736;83;21181;-60
2021/04/04 01:06:17;;;;;;;7.83;6.70;;;;;;;3.52;85.09;100891.80;2854454;83;21121;-61
2021/04/04 01:10:20;;;;;;;11.35;7.90;;;;;;;3.36;85.56;100892.92;2854661;83;21137;-61
2021/04/04 01:14:30;;;;;;;16.17;8.28;;;;;;;3.20;85.61;100886.98;2854616;83;21627;-61
2021/04/04 01:19:02;;;;;;;10.82;6.75;;;;;;;3.04;85.38;100890.67;2854532;83;21141;-62
2021/04/04 01:23:45;;;;;;;8.85;6.67;;;;;;;2.85;85.92;100887.50;2817474;84;32936;-62
2021/04/04 01:28:12;;;;;;;15.25;7.05;;;;;;;2.75;86.72;100889.21;2817872;84;21176;-61
2021/04/04 01:32:17;;;;;;;9.00;7.30;;;;;;;2.65;86.72;100893.97;2814924;83;21140;-64
2021/04/04 01:36:24;;;;;;;8.38;6.00;;;;;;;2.55;87.05;100898.28;2818769;84;21170;-62
2021/04/04 01:40:31;;;;;;;6.65;5.28;;;;;;;2.52;87.08;100904.10;2818771;84;21141;-62
2021/04/04 01:44:35;;;;;;;12.88;6.47;;;;;;;2.45;87.32;100906.09;2818398;83;21223;-62
2021/04/04 01:48:43;;;;;;;10.08;5.62;;;;;;;2.41;87.88;100897.50;2815102;84;21631;-61
2021/04/04 01:52:47;;;;;;;9.48;6.47;;;;;;;2.42;87.63;100898.34;2817211;84;21176;-62
2021/04/04 01:56:54;;;;;;;9.48;5.97;;;;;;;2.41;87.45;100894.01;2818374;84;21208;-63
2021/04/04 02:00:58;;;;;;;11.18;6.00;;;;;;;2.41;87.33;100892.25;2815108;84;21192;-62
2021/04/04 02:05:05;;;;;;;11.97;5.97;;;;;;;2.36;87.10;100894.20;2813004;84;21121;-61
2021/04/04 02:09:13;;;;;;;9.50;5.83;;;;;;;2.36;87.57;100896.83;2813497;84;21157;-64
2021/04/04 02:13:18;;;;;;;10.43;8.28;;;;;;;2.45;87.68;100882.94;2795515;84;21617;-63
2021/04/04 02:17:22;;;;;;;14.30;7.53;;;;;;;2.55;87.84;100882.97;2769552;85;21176;-60
2021/04/04 02:21:29;;;;;;;7.67;4.72;;;;;;;2.73;87.50;100887.11;2764924;85;21141;-61
2021/04/04 02:25:32;;;;;;;11.10;7.20;;;;;;;2.83;86.00;100885.37;2761090;85;21200;-60
2021/04/04 02:29:39;;;;;;;9.93;7.25;;;;;;;2.86;85.94;100883.08;2761059;86;21169;-61
2021/04/04 02:33:56;;;;;;;6.53;5.20;;;;;;;2.80;84.57;100886.80;2761480;84;21207;-63
2021/04/04 02:38:03;;;;;;;7.85;6.10;;;;;;;2.60;85.09;100879.73;2760934;86;21164;-61
2021/04/04 02:46:33;;;;;;;8.15;5.75;;;;;;;2.55;85.85;100876.40;2771191;85;21146;-61
2021/04/04 02:50:39;;;;;;;9.78;6.42;;;;;;;2.52;85.76;100868.64;2771536;85;21194;-62
2021/04/04 02:54:43;;;;;;;15.38;7.30;;;;;;;2.47;85.76;100870.16;2771339;85;21169;-62
2021/04/04 02:58:50;;;;;;;7.78;6.83;;;;;;;2.50;86.22;100864.78;2770693;85;21118;-62
2021/04/04 03:02:54;;;;;;;7.40;5.85;;;;;;;2.66;86.66;100865.03;2770766;85;21190;-61
2021/04/04 03:06:58;;;;;;;7.05;6.25;;;;;;;2.85;86.13;100864.30;2770552;85;21169;-62
2021/04/04 03:11:06;;;;;;;11.18;6.20;;;;;;;2.90;84.52;100871.52;2771496;85;21162;-63
2021/04/04 03:15:14;;;;;;;9.45;5.37;;;;;;;2.94;83.76;100871.80;2771534;85;21158;-62
2021/04/04 03:19:19;;;;;;;11.70;6.00;;;;;;;2.78;82.74;100872.88;2771041;85;21178;-61
2021/04/04 03:23:25;;;;;;;16.20;6.62;;;;;;;2.54;83.24;100877.31;2771378;85;21186;-63
2021/04/04 03:27:31;;;;;;;12.28;7.28;;;;;;;2.38;84.04;100863.49;2771235;85;21627;-60
2021/04/04 03:31:34;;;;;;;11.30;6.20;;;;;;;2.27;84.71;100872.22;2759095;85;21191;-61
2021/04/04 03:39:57;;;;;;;7.50;4.85;;;;;;;2.22;86.05;100867.61;2861027;82;21123;-62
2021/04/04 03:44:02;;;;;;;13.80;7.90;;;;;;;2.25;85.16;100864.86;2860996;83;21158;-62
2021/04/04 03:48:07;;;;;;;15.13;7.85;;;;;;;2.22;85.47;100865.82;2860645;81;21131;-61
2021/04/04 03:52:12;;;;;;;8.85;5.70;;;;;;;2.20;86.09;100867.66;2834781;83;21114;-61
2021/04/04 03:56:22;;;;;;;9.55;7.00;;;;;;;2.21;85.89;100865.90;2860556;83;21121;-63
2021/04/04 04:00:30;;;;;;;11.12;6.62;;;;;;;2.19;85.80;100862.48;2844380;83;21114;-61
2021/04/04 04:04:36;;;;;;;13.60;7.60;;;;;;;2.20;86.54;100857.63;2861128;81;21101;-61
2021/04/04 04:08:42;;;;;;;11.65;8.05;;;;;;;2.34;86.33;100863.19;2861118;81;21161;-62
2021/04/04 04:12:48;;;;;;;18.12;7.40;;;;;;;2.48;86.26;100861.37;2861285;83;21090;-61
2021/04/04 04:16:54;;;;;;;11.25;6.53;;;;;;;2.66;85.61;100859.77;2861246;81;21109;-61
2021/04/04 04:20:58;;;;;;;8.88;6.22;;;;;;;2.80;84.94;100857.06;2860924;81;21086;-62
2021/04/04 04:29:19;;;;;;;;;;;;;;;2.61;81.99;100857.80;2882208;82;21163;-61
2021/04/04 04:33:23;;;;;;;8.98;6.28;;;;;;;2.42;81.95;100859.83;2866202;82;20480;-61
2021/04/04 04:37:29;;;;;;;12.05;6.00;;;;;;;2.30;82.84;100860.28;2813616;84;21182;-62
2021/04/04 04:41:36;;;;;;;14.85;7.50;;;;;;;2.31;83.86;100858.05;2858834;83;21169;-63
2021/04/04 04:45:41;;;;;;;9.30;7.15;;;;;;;2.39;84.49;100856.01;2813356;84;21159;-61
2021/04/04 04:49:45;;;;;;;10.35;6.72;;;;;;;2.48;83.81;100855.24;2858812;83;21149;-60
2021/04/04 04:53:49;;;;;;;9.35;6.53;;;;;;;2.73;84.44;100849.02;2813768;82;21553;-61
2021/04/04 04:57:58;;;;;;;8.68;6.08;;;;;;;3.34;85.46;100856.59;2858885;83;21168;-62
2021/04/04 05:02:03;;;;;;;10.88;6.80;;;;;;;4.06;84.21;100863.11;2813496;84;21729;-62
2021/04/04 05:06:12;;;;;;;9.13;6.77;;;;;;;4.62;81.00;100873.72;2859054;83;21165;-63
2021/04/04 05:10:15;;;;;;;10.13;5.78;;;;;;;5.02;82.25;100874.04;2813963;84;21163;-61
2021/04/04 05:14:19;;;;;;;11.12;7.05;;;;;;;5.67;81.06;100872.09;2858903;83;21157;-63
2021/04/04 05:18:22;;;;;;;10.30;6.75;;;;;;;5.94;79.05;100872.92;2813698;84;21143;-61
2021/04/04 05:22:25;;;;;;;16.60;7.60;;;;;;;6.34;78.94;100864.20;2858788;83;21169;-62
2021/04/04 05:26:32;;;;;;;12.53;7.17;;;;;;;6.59;75.89;100877.86;2812821;84;21209;-62
2021/04/04 05:30:36;;;;;;;15.35;7.83;;;;;;;7.00;77.17;100883.42;2808220;84;21210;-62
2021/04/04 05:34:42;;;;;;;10.28;7.60;;;;;;;7.45;75.56;100879.97;2808589;84;21165;-60
2021/04/04 05:38:47;;;;;;;7.92;7.12;;;;;;;7.92;76.00;100884.67;2808459;84;21153;-61
2021/04/04 05:43:01;;;;;;;10.58;6.05;;;;;;;8.15;71.26;100879.29;2808836;84;21177;-62
2021/04/04 05:47:22;;;;;;;11.38;7.58;;;;;;;8.21;71.72;100883.36;2808850;84;21125;-60
2021/04/04 05:56:23;;;;;;;10.35;6.83;;;;;;;8.63;69.46;100891.36;2692452;88;21189;-61
2021/04/04 06:00:32;;;;;;;9.25;6.65;;;;;;;8.70;70.19;100899.78;2695615;87;21150;-60
2021/04/04 06:04:59;;;;;;;10.75;6.55;;;;;;;8.84;69.52;100897.56;2694895;88;21189;-61
2021/04/04 06:09:44;;;;;;;10.48;8.00;;;;;;;8.95;67.68;100908.34;2691958;88;21185;-61
2021/04/04 06:14:12;;;;;;;11.35;8.45;;;;;;;8.55;67.20;100898.97;2696157;88;21176;-63
2021/04/04 06:18:46;;;;;;;12.25;9.98;;;;;;;8.32;68.59;100897.27;2713236;87;21217;-60
2021/04/04 06:22:54;;;;;;;14.33;7.95;;;;;;;8.06;68.84;100891.80;2695341;88;21195;-62
2021/04/04 06:27:22;;;;;;;10.53;8.13;;;;;;;7.82;68.32;100896.80;2694161;88;21140;-63
2021/04/04 06:32:07;;;;;;;12.00;8.38;;;;;;;7.69;69.52;100899.34;2682452;87;21196;-61
2021/04/04 06:36:39;;;;;;;11.35;8.18;;;;;;;7.66;69.98;100894.20;2684378;88;21208;-63
2021/04/04 06:40:54;;;;;;;15.58;9.48;;;;;;;7.40;70.38;100897.47;2684418;88;21614;-63
2021/04/04 06:45:31;;;;;;;13.55;9.53;;;;;;;7.68;71.54;100884.39;2678556;88;21194;-63
2021/04/04 06:50:10;;;;;;;10.40;8.25;;;;;;;7.75;70.11;100887.04;2641129;89;21196;-62
2021/04/04 06:54:50;;;;;;;8.95;6.83;;;;;;;7.91;70.43;100891.41;2648572;89;21139;-62
2021/04/04 06:59:36;;;;;;;11.85;6.75;;;;;;;8.06;69.59;100882.98;2639027;90;21202;-62
2021/04/04 07:03:50;;;;;;;12.88;7.00;;;;;;;7.84;68.70;100884.30;2788955;84;21308;-62
2021/04/04 07:08:32;;;;;;;6.78;6.00;;;;;;;8.04;70.20;100884.39;2782355;84;21121;-63
2021/04/04 07:12:43;;;;;;;7.70;6.50;;;;;;;8.12;69.46;100870.21;2797074;84;21168;-61
2021/04/04 07:17:42;;;;;;;9.45;6.65;;;;;;;8.45;71.61;100877.45;2798293;84;21142;-62
2021/04/04 07:22:25;;;;;;;11.60;8.03;;;;;;;8.48;70.07;100875.09;2771275;84;21615;-63
2021/04/04 07:26:49;;;;;;;13.53;8.15;;;;;;;8.67;70.88;100866.83;2746356;84;21122;-62
2021/04/04 07:31:00;;;;;;;10.95;6.12;;;;;;;8.99;71.23;100857.25;2805097;84;21163;-63
2021/04/04 07:35:20;;;;;;;11.10;6.87;;;;;;;9.19;68.94;100858.56;2770641;84;21192;-63
2021/04/04 07:39:45;;;;;;;7.22;4.28;;;;;;;9.34;68.57;100852.72;2804162;84;21151;-64
2021/04/04 07:44:28;;;;;;;10.28;4.83;;;;;;;9.32;66.99;100853.77;2787176;84;21178;-62
2021/04/04 07:48:53;;;;;;;6.75;4.40;;;;;;;9.13;66.53;100855.00;2776222;84;21159;-64
2021/04/04 07:53:47;;;;;;;6.47;4.72;;;;;;;9.08;66.59;100849.99;2791589;84;21195;-65
2021/04/04 07:58:19;;;;;;;7.53;4.55;;;;;;;8.88;66.79;100845.16;2803041;84;21620;-64
2021/04/04 08:02:47;;;;;;;15.45;5.65;;;;;;;8.92;66.71;100843.99;2719904;85;21175;-63
2021/04/04 08:07:02;;;;;;;5.85;3.40;;;;;;;8.82;66.00;100857.02;2745999;85;21210;-63
2021/04/04 08:11:24;;;;;;;7.30;3.85;;;;;;;8.85;67.78;100848.88;2752104;85;22218;-63
2021/04/04 08:15:58;;;;;;;7.85;4.90;;;;;;;9.08;67.46;100854.47;2772890;85;21194;-64
2021/04/04 08:20:19;;;;;;;7.35;3.58;;;;;;;9.38;66.93;100846.70;2747462;85;21171;-63
2021/04/04 08:24:44;;;;;;;5.75;3.52;;;;;;;9.53;65.61;100848.31;2763250;85;21155;-62
2021/04/04 08:28:59;;;;;;;4.05;2.58;;;;;;;9.45;64.94;100850.66;2769628;85;22154;-64
2021/04/04 08:33:31;;;;;;;4.85;3.67;;;;;;;9.46;64.58;100843.53;2781431;85;21658;-64
2021/04/04 08:37:48;;;;;;;4.28;2.50;;;;;;;9.34;64.02;100851.86;2740361;85;21210;-63
2021/04/04 08:41:51;;;;;;;4.85;3.40;;;;;;;9.26;61.54;100854.56;2781863;85;21600;-64
2021/04/04 08:46:15;;;;;;;5.20;3.40;;;;;;;9.25;61.42;100854.66;2791978;85;21175;-64
2021/04/04 08:50:20;;;;;;;4.90;2.65;;;;;;;9.36;62.16;100859.23;2781154;85;21174;-63
2021/04/04 08:54:27;;;;;;;4.95;2.90;;;;;;;9.36;62.27;100856.12;2746058;85;21685;-62
2021/04/04 08:58:36;;;;;;;3.02;2.33;;;;;;;9.13;61.55;100856.33;2745686;86;22334;-63
2021/04/04 09:03:08;;;;;;;3.27;2.25;;;;;;;9.28;61.91;100852.65;2755182;86;21579;-64
2021/04/04 09:07:12;;;;;;;4.50;2.40;;;;;;;9.30;61.61;100859.16;2771501;84;21171;-63
2021/04/04 09:11:18;;;;;;;2.77;1.82;;;;;;;9.30;62.49;100856.52;2769216;84;21177;-63
2021/04/04 09:15:21;;;;;;;4.03;2.00;;;;;;;9.38;61.38;100853.34;2746319;86;21212;-62
2021/04/04 09:19:31;;;;;;;7.87;3.12;;;;;;;9.63;60.41;100852.98;2758631;84;21175;-64
2021/04/04 09:23:36;;;;;;;3.10;2.20;;;;;;;9.61;60.65;100849.12;2743497;86;21188;-64
2021/04/04 09:27:43;;;;;;;3.17;2.12;;;;;;;9.78;59.65;100843.13;2734770;84;21177;-64
2021/04/04 09:31:52;;;;;;;4.80;2.52;;;;;;;10.09;59.19;100843.14;2773791;84;21187;-63
2021/04/04 09:36:00;;;;;;;3.87;3.40;;;;;;;10.24;58.48;100831.05;2765590;84;21185;-64
2021/04/04 09:40:05;;;;;;;4.30;2.77;;;;;;;10.43;58.21;100831.91;2758255;84;21157;-67
2021/04/04 09:44:09;;;;;;;4.87;3.50;;;;;;;10.66;57.07;100823.59;2761855;84;21631;-67
2021/04/04 09:48:23;;;;;;;4.85;3.50;;;;;;;10.88;56.04;100815.34;2761673;84;21181;-67
2021/04/04 09:52:29;;;;;;;4.80;3.58;;;;;;;10.75;54.52;100819.40;2760210;84;21643;-64
2021/04/04 09:56:32;;;;;;;4.30;3.43;;;;;;;10.43;55.30;100819.48;2758256;86;21175;-65
2021/04/04 10:00:39;;;;;;;6.40;4.10;;;;;;;10.13;56.82;100812.72;2747193;86;21934;-64
2021/04/04 10:04:45;;;;;;;5.83;4.80;;;;;;;10.13;57.81;100811.38;2768254;86;21630;-64
2021/04/04 10:09:03;;;;;;;;;;;;;;;10.14;56.26;100810.42;2771355;86;21153;-63
2021/04/04 10:13:06;;;;;;;4.60;3.35;;;;;;;9.99;55.64;100805.73;2768546;86;20192;-65
2021/04/04 10:17:14;;;;;;;5.30;3.10;;;;;;;9.79;55.80;100800.48;2780652;84;21194;-65
2021/04/04 10:21:17;;;;;;;7.70;3.70;;;;;;;9.80;54.81;100794.70;2798446;84;21166;-65
2021/04/04 10:25:20;;;;;;;4.65;3.20;;;;;;;9.97;55.24;100795.69;2784517;84;21173;-63
2021/04/04 10:29:26;;;;;;;4.75;3.83;;;;;;;10.13;56.68;100799.42;2763975;86;21175;-66
2021/04/04 10:33:27;;;;;;;6.65;5.28;;;;;;;10.10;56.88;100787.69;2768689;86;21147;-64
2021/04/04 10:37:30;;;;;;;5.42;4.60;;;;;;;10.26;57.21;100786.58;2769042;85;21623;-65
2021/04/04 10:41:38;;;;;;;4.78;4.33;;;;;;;10.46;57.65;100782.98;2772400;85;21167;-63
2021/04/04 10:46:02;;;;;;;4.97;4.47;;;;;;;10.66;56.25;100777.49;2768820;85;21169;-65
2021/04/04 10:50:10;;;;;;;4.95;3.98;;;;;;;10.79;55.97;100777.42;2764727;85;21678;-64
2021/04/04 10:54:15;;;;;;;5.37;3.65;;;;;;;10.92;55.37;100768.89;2773979;85;21207;-65
2021/04/04 10:58:23;;;;;;;4.62;3.60;;;;;;;10.99;55.78;100758.13;2766069;85;21184;-64
2021/04/04 11:02:28;;;;;;;7.78;4.08;;;;;;;11.07;55.15;100760.70;2742440;84;21219;-64
2021/04/04 11:06:31;;;;;;;5.08;4.20;;;;;;;11.11;54.07;100758.17;2685538;86;21178;-64
2021/04/04 11:10:35;;;;;;;4.25;3.85;;;;;;;11.16;55.06;100749.34;2643008;88;21249;-65
2021/04/04 11:14:38;;;;;;;6.90;3.25;;;;;;;11.18;54.31;100742.08;2689731;87;21212;-63
2021/04/04 11:18:49;;;;;;;3.33;3.02;;;;;;;11.23;52.48;100737.73;2727139;85;21168;-64
2021/04/04 11:22:53;;;;;;;5.37;3.05;;;;;;;11.34;54.17;100739.56;2709076;87;21188;-66
2021/04/04 11:31:17;;;;;;;3.72;3.40;;;;;;;11.20;53.08;100733.52;3028399;77;23430;-64
2021/04/04 11:35:20;;;;;;;2.65;2.45;;;;;;;11.14;52.85;100727.31;2948544;80;21137;-65
2021/04/04 11:39:24;;;;;;;6.78;4.20;;;;;;;11.13;52.93;100715.83;2947372;80;21160;-64
2021/04/04 11:43:30;;;;;;;5.25;4.75;;;;;;;11.26;53.15;100714.86;2913131;80;21169;-64
2021/04/04 11:47:33;;;;;;;6.83;4.85;;;;;;;11.41;52.82;100701.67;2945693;79;21160;-64
2021/04/04 11:51:36;;;;;;;3.62;3.33;;;;;;;11.64;54.16;100696.83;2946974;79;21180;-65
2021/04/04 11:55:44;;;;;;;5.33;2.85;;;;;;;11.82;53.37;100687.83;2945610;80;21660;-64
2021/04/04 11:59:55;;;;;;;3.12;2.50;;;;;;;11.93;52.46;100681.63;2947292;79;21134;-64
2021/04/04 12:04:22;;;;;;;6.25;4.05;;;;;;;12.00;52.66;100672.17;2944975;80;21168;-63
2021/04/04 12:08:30;;;;;;;5.22;4.20;;;;;;;11.98;53.11;100656.76;2943734;79;21173;-64
2021/04/04 12:12:35;;;;;;;5.20;3.92;;;;;;;11.96;53.26;100654.23;2940114;80;21089;-66
2021/04/04 12:16:50;;;;;;;4.70;3.72;;;;;;;11.98;55.26;100642.95;2946534;80;21168;-65
2021/04/04 12:20:56;;;;;;;3.17;2.37;;;;;;;12.10;53.41;100630.46;2947992;80;21627;-65
2021/04/04 12:24:59;;;;;;;2.12;1.95;;;;;;;12.15;51.79;100612.75;2946107;80;21161;-67
2021/04/04 12:29:03;;;;;;;3.30;1.52;;;;;;;12.13;51.11;100606.70;2943559;80;21112;-64
2021/04/04 12:33:17;;;;;;;2.87;2.20;;;;;;;12.18;50.23;100600.96;2948132;80;21150;-65
2021/04/04 12:37:25;;;;;;;3.42;2.00;;;;;;;12.23;51.46;100589.44;2947649;80;21167;-64
2021/04/04 12:41:30;;;;;;;6.05;2.87;;;;;;;12.29;51.28;100582.25;2950109;80;21174;-64
2021/04/04 12:45:36;;;;;;;2.75;2.10;;;;;;;12.29;50.33;100580.91;2950306;80;21144;-64
2021/04/04 12:49:41;;;;;;;5.00;3.45;;;;;;;12.32;49.79;100575.31;2950198;80;21170;-64
2021/04/04 12:53:47;;;;;;;3.83;3.00;;;;;;;12.36;51.41;100574.07;2940124;79;21156;-65
2021/04/04 12:58:09;;;;;;;4.85;2.30;;;;;;;12.41;50.98;100570.55;2924770;80;21153;-64
2021/04/04 13:02:12;;;;;;;3.62;3.08;;;;;;;12.49;51.06;100559.70;2946469;80;21153;-65
2021/04/04 13:06:20;;;;;;;2.58;2.30;;;;;;;12.58;48.58;100544.25;2943948;80;21117;-65
2021/04/04 13:10:24;;;;;;;2.08;1.90;;;;;;;12.64;48.80;100540.17;2948530;80;21128;-65
2021/04/04 13:14:27;;;;;;;1.95;1.85;;;;;;;12.67;50.08;100524.75;2948579;80;21157;-65
2021/04/04 13:18:37;;;;;;;1.57;1.47;;;;;;;12.69;49.19;100513.95;2950750;80;21145;-66
2021/04/04 13:22:42;;;;;;;3.70;2.45;;;;;;;12.74;48.70;100508.19;2950756;80;21172;-67
2021/04/04 13:26:50;;;;;;;2.40;1.90;;;;;;;12.84;49.02;100501.08;2952361;80;21124;-68
2021/04/04 13:31:18;;;;;;;2.10;1.80;;;;;;;12.97;50.30;100500.36;2912200;80;21139;-66
2021/04/04 13:35:34;;;;;;;5.95;2.02;;;;;;;13.07;48.62;100484.83;2903891;81;21460;-67
2021/04/04 13:39:40;;;;;;;2.37;1.85;;;;;;;13.09;48.92;100474.86;2885071;80;21202;-66
2021/04/04 13:43:47;;;;;;;1.80;1.70;;;;;;;13.09;48.92;100474.86;2854553;83;21154;-65
2021/04/04 13:47:57;;;;;;;2.90;1.92;;;;;;;13.14;48.14;100457.44;2855150;83;21142;-65
2021/04/04 13:52:16;;;;;;;2.98;2.52;;;;;;;13.14;48.85;100456.58;2867961;82;22113;-64
2021/04/04 13:56:22;;;;;;;2.77;2.58;;;;;;;13.16;49.64;100441.27;2879088;80;21117;-64
2021/04/04 14:00:42;;;;;;;3.17;1.87;;;;;;;13.22;50.58;100439.39;2906474;80;22202;-63
2021/04/04 14:04:45;;;;;;;2.83;2.52;;;;;;;13.33;49.47;100434.41;2904117;82;21171;-63
2021/04/04 14:08:48;;;;;;;3.95;2.58;;;;;;;13.39;48.42;100427.66;2887709;82;21196;-63
2021/04/04 14:12:52;;;;;;;3.02;2.72;;;;;;;13.29;48.09;100415.12;2895933;82;21171;-63
2021/04/04 14:16:59;;;;;;;3.62;2.47;;;;;;;13.27;48.12;100401.08;2874482;82;21134;-64
2021/04/04 14:21:05;;;;;;;4.17;1.62;;;;;;;13.24;46.29;100392.48;2877501;80;21632;-64
2021/04/04 14:25:09;;;;;;;4.40;3.22;;;;;;;13.17;47.32;100392.23;2867370;82;21220;-63
2021/04/04 14:29:14;;;;;;;4.35;2.85;;;;;;;13.22;48.78;100391.31;2903002;80;21619;-63
2021/04/04 14:33:19;;;;;;;5.70;2.40;;;;;;;13.29;48.68;100383.58;2945647;80;21676;-63
2021/04/04 14:37:22;;;;;;;4.53;2.15;;;;;;;13.38;47.09;100380.05;2930304;80;21201;-63
2021/04/04 14:41:27;;;;;;;2.85;2.00;;;;;;;13.41;47.05;100370.91;2874583;82;21346;-63
2021/04/04 14:45:29;;;;;;;2.92;2.67;;;;;;;13.44;46.76;100373.33;2860380;83;21648;-63
2021/04/04 14:49:32;;;;;;;1.67;1.57;;;;;;;13.47;46.72;100375.71;2889041;82;21149;-63
2021/04/04 14:53:35;;;;;;;1.62;1.32;;;;;;;13.46;46.41;100359.33;2850019;83;21154;-63
2021/04/04 14:57:40;;;;;;;4.53;1.82;;;;;;;13.44;44.72;100359.97;2940000;80;21117;-63
2021/04/04 15:01:43;;;;;;;2.22;2.00;;;;;;;13.33;44.73;100353.40;2950052;80;21149;-63
2021/04/04 15:05:48;;;;;;;2.65;2.37;;;;;;;13.22;44.69;100351.24;2934666;79;21143;-63
2021/04/04 15:09:51;;;;;;;3.75;2.35;;;;;;;13.26;45.24;100349.97;2931284;80;21112;-63
2021/04/04 15:13:54;;;;;;;2.15;1.75;;;;;;;13.26;46.45;100333.94;2839668;83;21181;-62
2021/04/04 15:17:58;;;;;;;4.67;2.08;;;;;;;13.24;46.46;100329.23;2943116;80;21169;-64
2021/04/04 15:22:00;;;;;;;2.75;2.10;;;;;;;13.15;45.58;100323.39;2943173;80;21144;-63
2021/04/04 15:26:05;;;;;;;3.02;1.82;;;;;;;13.04;45.38;100322.22;2933386;80;21626;-64
2021/04/04 15:30:15;;;;;;;3.85;2.55;;;;;;;12.91;45.41;100312.66;2927906;80;21138;-64
2021/04/04 15:34:18;;;;;;;4.10;2.42;;;;;;;12.95;46.92;100315.39;2928143;80;21096;-63
2021/04/04 15:38:25;;;;;;;3.80;2.33;;;;;;;12.90;46.62;100303.47;2932506;80;21141;-63
2021/04/04 15:42:52;;;;;;;3.80;2.80;;;;;;;12.82;46.95;100297.50;2942859;80;21646;-64
2021/04/04 15:46:58;;;;;;;3.85;2.22;;;;;;;12.78;47.28;100284.09;2700335;87;21193;-63
2021/04/04 15:51:01;;;;;;;2.45;2.25;;;;;;;12.70;47.07;100277.60;2700268;87;21172;-63
2021/04/04 15:55:05;;;;;;;3.27;2.62;;;;;;;12.68;47.46;100268.90;2692184;87;21678;-65
2021/04/04 15:59:09;;;;;;;3.42;2.55;;;;;;;12.60;46.82;100268.77;2696695;86;21132;-62
2021/04/04 16:03:12;;;;;;;3.30;2.10;;;;;;;12.53;47.92;100258.28;2700296;87;21627;-63
2021/04/04 16:07:15;;;;;;;3.42;2.20;;;;;;;12.54;48.20;100263.48;2688639;87;21200;-63
2021/04/04 16:11:29;;;;;;;3.45;2.42;;;;;;;12.61;48.27;100250.91;2681351;87;21662;-64
2021/04/04 16:15:27;;;;;;;3.90;2.33;;;;;;;12.55;47.70;100241.64;2661490;88;21188;-63
2021/04/04 16:19:30;;;;;;;3.27;2.17;;;;;;;12.40;49.06;100242.55;2646163;90;21216;-63
2021/04/04 16:23:34;;;;;;;3.45;2.35;;;;;;;12.25;47.89;100234.11;2697491;87;21220;-63
2021/04/04 16:27:38;;;;;;;3.50;2.90;;;;;;;12.21;49.70;100228.70;2692844;87;21193;-63
2021/04/04 16:31:41;;;;;;;2.50;2.30;;;;;;;12.20;50.21;100223.02;2683642;87;21214;-64
2021/04/04 16:35:44;;;;;;;3.55;1.67;;;;;;;12.09;48.92;100220.81;2700064;87;21184;-65
2021/04/04 16:39:47;;;;;;;4.50;2.87;;;;;;;11.93;48.57;100215.12;2699926;87;21185;-65
2021/04/04 16:43:50;;;;;;;4.12;2.40;;;;;;;11.80;48.33;100208.25;2706832;86;21193;-64
2021/04/04 16:47:54;;;;;;;3.22;2.52;;;;;;;11.70;50.30;100205.55;2725011;85;21627;-65
2021/04/04 16:51:56;;;;;;;4.47;2.98;;;;;;;11.58;51.48;100206.61;2712393;85;21196;-65
2021/04/04 16:56:02;;;;;;;4.97;3.25;;;;;;;11.49;52.03;100207.41;2734599;85;21593;-64
2021/04/04 17:00:12;;;;;;;6.00;3.12;;;;;;;11.34;52.42;100207.78;2724616;85;21205;-65
2021/04/04 17:04:15;;;;;;;6.50;3.22;;;;;;;11.12;52.34;100202.98;2728881;85;21214;-64
2021/04/04 17:08:21;;;;;;;7.55;3.30;;;;;;;10.90;52.46;100199.96;2719748;85;21196;-65
2021/04/04 17:12:23;;;;;;;4.42;2.25;;;;;;;10.71;52.54;100197.52;2730279;86;21189;-63
2021/04/04 17:16:28;;;;;;;3.17;2.00;;;;;;;10.47;53.30;100191.59;2742464;85;21168;-65
2021/04/04 17:20:30;;;;;;;8.20;3.25;;;;;;;10.22;54.18;100186.92;2642828;88;21217;-64
2021/04/04 17:24:33;;;;;;;4.80;2.87;;;;;;;10.00;54.68;100182.03;2730332;85;21183;-65
2021/04/04 17:28:37;;;;;;;5.62;3.55;;;;;;;9.79;55.57;100179.32;2722913;85;21177;-65
2021/04/04 17:32:40;;;;;;;3.85;3.45;;;;;;;9.60;55.86;100172.83;2724098;85;21193;-65
2021/04/04 17:36:43;;;;;;;5.50;4.22;;;;;;;9.44;56.22;100167.90;2714246;85;21181;-64
2021/04/04 17:40:48;;;;;;;5.15;3.83;;;;;;;9.29;56.52;100168.59;2741337;86;21169;-64
2021/04/04 17:44:51;;;;;;;8.00;4.33;;;;;;;9.17;56.65;100171.73;2728284;84;21212;-64
2021/04/04 17:48:54;;;;;;;5.33;3.33;;;;;;;9.04;56.70;100165.68;2732245;84;21164;-64
2021/04/04 17:52:57;;;;;;;6.15;3.47;;;;;;;8.83;57.41;100169.03;2743938;84;21200;-64
2021/04/04 17:57:01;;;;;;;3.45;3.15;;;;;;;8.68;57.62;100170.58;2733168;84;21188;-64
2021/04/04 18:01:05;;;;;;;7.62;3.87;;;;;;;8.59;57.54;100179.22;2760200;86;21185;-65
2021/04/04 18:05:14;;;;;;;7.35;3.92;;;;;;;8.47;57.79;100173.00;2745546;84;21165;-64
2021/04/04 18:13:43;;;;;;;6.15;4.22;;;;;;;8.26;58.32;100168.84;2752972;84;20196;-64
2021/04/04 18:17:47;;;;;;;7.45;4.45;;;;;;;8.15;59.21;100166.95;2747618;84;21213;-65
2021/04/04 18:21:50;;;;;;;7.50;4.40;;;;;;;8.03;59.59;100160.75;2737836;84;21152;-64
2021/04/04 18:25:53;;;;;;;4.45;3.70;;;;;;;7.93;59.74;100155.78;2753344;84;21114;-64
2021/04/04 18:29:58;;;;;;;6.35;3.30;;;;;;;7.76;60.39;100155.66;2718665;85;21196;-64
2021/04/04 18:34:00;;;;;;;3.83;3.50;;;;;;;7.55;60.63;100151.81;2753323;84;22333;-64
2021/04/04 18:38:05;;;;;;;8.78;4.42;;;;;;;7.41;60.82;100150.16;2731871;84;21168;-64
2021/04/04 18:42:09;;;;;;;5.37;4.03;;;;;;;7.34;60.92;100149.37;2741240;84;21137;-64
2021/04/04 18:46:12;;;;;;;4.62;3.87;;;;;;;7.25;61.33;100146.89;2733653;86;21698;-64
2021/04/04 18:50:16;;;;;;;5.03;4.03;;;;;;;7.12;62.01;100148.23;2716167;87;21233;-64
2021/04/04 18:54:19;;;;;;;6.30;3.65;;;;;;;7.03;62.14;100151.05;2715915;87;21725;-63
2021/04/04 18:58:23;;;;;;;7.40;3.95;;;;;;;7.03;62.10;100147.53;2739088;84;21165;-64
2021/04/04 19:02:26;;;;;;;6.28;4.58;;;;;;;6.96;62.53;100139.17;2734909;84;21185;-65
2021/04/04 19:06:30;;;;;;;5.12;4.08;;;;;;;6.91;62.69;100134.23;2720766;84;21256;-65
2021/04/04 19:10:34;;;;;;;3.20;2.90;;;;;;;6.92;62.75;100137.23;2710423;84;21185;-67
2021/04/04 19:14:38;;;;;;;7.47;4.58;;;;;;;6.89;62.92;100141.42;2750063;84;21196;-67
2021/04/04 19:18:41;;;;;;;6.80;4.17;;;;;;;6.84;63.37;100129.83;2741380;84;21205;-66
2021/04/04 19:22:45;;;;;;;5.35;3.22;;;;;;;6.81;63.77;100126.55;2734330;86;21640;-67
2021/04/04 19:26:49;;;;;;;6.03;3.90;;;;;;;6.74;64.17;100119.50;2747750;84;21620;-66
2021/04/04 19:30:52;;;;;;;6.15;4.30;;;;;;;6.64;64.20;100120.61;2756926;84;21168;-66
2021/04/04 19:34:55;;;;;;;8.68;4.83;;;;;;;6.59;64.33;100114.80;2729547;86;21195;-66
2021/04/04 19:38:58;;;;;;;8.63;6.22;;;;;;;6.56;64.67;100111.05;2715206;87;21615;-66
2021/04/04 19:43:02;;;;;;;11.95;6.80;;;;;;;6.54;64.74;100100.56;2714674;87;21717;-66
2021/04/04 19:47:06;;;;;;;8.93;6.17;;;;;;;6.56;64.84;100104.44;2702250;87;21193;-66
2021/04/04 19:51:09;;;;;;;13.50;7.35;;;;;;;6.54;65.17;100086.52;2698841;88;21202;-66